RYR61LJ LEPA-LEZL
Flight info
| Callsign | RYR61LJ |
|---|---|
| Flight time | 1h 23m |
| Altitude | 37000 |
| Route | EPAMA N733 VLC M985 MAMIS |
| Aircraft | B738/M-SDE3FGILRWY/SB1 |
Departure
| Time | 2026-05-08 12:44 |
|---|---|
| Airport | Palma de Mallorca Airport (LEPA) |
Arrival
| Time | 2026-05-08 14:08 |
|---|---|
| Airport | Seville Airport (LEZL) |
| Time | Latitude | Longitude | Altitude | Speed | Heading |
|---|---|---|---|---|---|
| 2026-05-08 12:28 | 39.54948 | 2.73769 | 28 ft | 0 kts | 238° |
| 2026-05-08 12:36 | 39.54948 | 2.73770 | 28 ft | 1 kts | 238° |
| 2026-05-08 12:36 | 39.54960 | 2.73795 | 29 ft | 4 kts | 236° |
| 2026-05-08 12:36 | 39.54976 | 2.73823 | 29 ft | 4 kts | 231° |
| 2026-05-08 12:37 | 39.54994 | 2.73849 | 29 ft | 4 kts | 219° |
| 2026-05-08 12:37 | 39.55016 | 2.73864 | 29 ft | 4 kts | 177° |
| 2026-05-08 12:37 | 39.55025 | 2.73863 | 29 ft | 1 kts | 148° |
| 2026-05-08 12:39 | 39.55018 | 2.73868 | 29 ft | 3 kts | 148° |
| 2026-05-08 12:40 | 39.54991 | 2.73890 | 29 ft | 7 kts | 148° |
| 2026-05-08 12:40 | 39.54936 | 2.73935 | 29 ft | 12 kts | 148° |
| 2026-05-08 12:40 | 39.54855 | 2.73996 | 29 ft | 15 kts | 161° |
| 2026-05-08 12:40 | 39.54764 | 2.73948 | 29 ft | 15 kts | 175° |
| 2026-05-08 12:41 | 39.54684 | 2.73918 | 29 ft | 14 kts | 240° |
| 2026-05-08 12:41 | 39.54636 | 2.73802 | 29 ft | 15 kts | 241° |
| 2026-05-08 12:41 | 39.54581 | 2.73678 | 29 ft | 16 kts | 237° |
| 2026-05-08 12:41 | 39.54521 | 2.73557 | 29 ft | 16 kts | 238° |
| 2026-05-08 12:42 | 39.54462 | 2.73434 | 29 ft | 17 kts | 239° |
| 2026-05-08 12:42 | 39.54400 | 2.73301 | 29 ft | 18 kts | 238° |
| 2026-05-08 12:42 | 39.54335 | 2.73175 | 29 ft | 14 kts | 212° |
| 2026-05-08 12:42 | 39.54283 | 2.73251 | 29 ft | 13 kts | 95° |
| 2026-05-08 12:43 | 39.54277 | 2.73366 | 29 ft | 13 kts | 94° |
| 2026-05-08 12:43 | 39.54278 | 2.73479 | 29 ft | 12 kts | 75° |
| 2026-05-08 12:43 | 39.54321 | 2.73580 | 29 ft | 17 kts | 58° |
| 2026-05-08 12:43 | 39.54492 | 2.73942 | 29 ft | 81 kts | 58° |
| 2026-05-08 12:44 | 39.54893 | 2.74792 | 29 ft | 137 kts | 59° |
| 2026-05-08 12:44 | 39.55458 | 2.75996 | 268 ft | 162 kts | 58° |
| 2026-05-08 12:44 | 39.56008 | 2.77210 | 1049 ft | 155 kts | 59° |
| 2026-05-08 12:44 | 39.56561 | 2.78415 | 1721 ft | 156 kts | 62° |
| 2026-05-08 12:45 | 39.57151 | 2.79705 | 2055 ft | 180 kts | 62° |
| 2026-05-08 12:45 | 39.57595 | 2.80677 | 2223 ft | 198 kts | 62° |
| 2026-05-08 12:45 | 39.58561 | 2.82775 | 2858 ft | 207 kts | 61° |
| 2026-05-08 12:45 | 39.59054 | 2.83846 | 3193 ft | 211 kts | 61° |
| 2026-05-08 12:46 | 39.59826 | 2.85523 | 3672 ft | 221 kts | 62° |
| 2026-05-08 12:46 | 39.60613 | 2.87235 | 4371 ft | 221 kts | 62° |
| 2026-05-08 12:46 | 39.61481 | 2.88917 | 4924 ft | 234 kts | 46° |
| 2026-05-08 12:46 | 39.63007 | 2.89902 | 5120 ft | 263 kts | 8° |
| 2026-05-08 12:47 | 39.64856 | 2.89510 | 5553 ft | 278 kts | 334° |
| 2026-05-08 12:47 | 39.66393 | 2.87991 | 6221 ft | 283 kts | 308° |
| 2026-05-08 12:47 | 39.67244 | 2.85714 | 6859 ft | 283 kts | 278° |
| 2026-05-08 12:47 | 39.67358 | 2.83205 | 7722 ft | 276 kts | 266° |
| 2026-05-08 12:48 | 39.67252 | 2.80725 | 8523 ft | 276 kts | 263° |
| 2026-05-08 12:48 | 39.67099 | 2.78233 | 9364 ft | 278 kts | 263° |
| 2026-05-08 12:48 | 39.66945 | 2.75718 | 10161 ft | 280 kts | 263° |
| 2026-05-08 12:48 | 39.66793 | 2.73119 | 10504 ft | 301 kts | 264° |
| 2026-05-08 12:49 | 39.66640 | 2.70299 | 10755 ft | 322 kts | 264° |
| 2026-05-08 12:49 | 39.66492 | 2.67355 | 11327 ft | 330 kts | 264° |
| 2026-05-08 12:49 | 39.66352 | 2.64376 | 12123 ft | 332 kts | 264° |
| 2026-05-08 12:49 | 39.66215 | 2.61373 | 12945 ft | 335 kts | 264° |
| 2026-05-08 12:50 | 39.66081 | 2.58331 | 13773 ft | 339 kts | 264° |
| 2026-05-08 12:50 | 39.65946 | 2.55263 | 14504 ft | 341 kts | 264° |
| 2026-05-08 12:50 | 39.65814 | 2.52209 | 15387 ft | 339 kts | 263° |
| 2026-05-08 12:50 | 39.65681 | 2.49158 | 16216 ft | 338 kts | 263° |
| 2026-05-08 12:51 | 39.65545 | 2.46098 | 16967 ft | 342 kts | 263° |
| 2026-05-08 12:51 | 39.65273 | 2.39936 | 18582 ft | 342 kts | 262° |
| 2026-05-08 12:51 | 39.65135 | 2.36841 | 19183 ft | 346 kts | 262° |
| 2026-05-08 12:52 | 39.64993 | 2.33703 | 19746 ft | 351 kts | 263° |
| 2026-05-08 12:52 | 39.64705 | 2.27364 | 20951 ft | 357 kts | 263° |
| 2026-05-08 12:52 | 39.64558 | 2.24130 | 21550 ft | 360 kts | 263° |
| 2026-05-08 12:53 | 39.64408 | 2.20870 | 22104 ft | 364 kts | 263° |
| 2026-05-08 12:53 | 39.64256 | 2.17568 | 22659 ft | 368 kts | 263° |
| 2026-05-08 12:53 | 39.64101 | 2.14240 | 23217 ft | 372 kts | 263° |
| 2026-05-08 12:53 | 39.63944 | 2.10879 | 23733 ft | 375 kts | 263° |
| 2026-05-08 12:54 | 39.63785 | 2.07493 | 24212 ft | 377 kts | 263° |
| 2026-05-08 12:54 | 39.63624 | 2.04086 | 24719 ft | 379 kts | 263° |
| 2026-05-08 12:54 | 39.63461 | 2.00667 | 25214 ft | 381 kts | 263° |
| 2026-05-08 12:54 | 39.63297 | 1.97232 | 25681 ft | 383 kts | 263° |
| 2026-05-08 12:55 | 39.63130 | 1.93780 | 26137 ft | 385 kts | 263° |
| 2026-05-08 12:55 | 39.62962 | 1.90303 | 26609 ft | 387 kts | 263° |
| 2026-05-08 12:55 | 39.62790 | 1.86797 | 26968 ft | 392 kts | 263° |
| 2026-05-08 12:55 | 39.62616 | 1.83264 | 27392 ft | 394 kts | 263° |
| 2026-05-08 12:56 | 39.62441 | 1.79714 | 27860 ft | 395 kts | 263° |
| 2026-05-08 12:56 | 39.62264 | 1.76156 | 28294 ft | 396 kts | 263° |
| 2026-05-08 12:56 | 39.62086 | 1.72583 | 28697 ft | 399 kts | 263° |
| 2026-05-08 12:56 | 39.61907 | 1.69032 | 29086 ft | 401 kts | 263° |
| 2026-05-08 12:57 | 39.61724 | 1.65419 | 29486 ft | 403 kts | 263° |
| 2026-05-08 12:57 | 39.61539 | 1.61786 | 29874 ft | 404 kts | 263° |
| 2026-05-08 12:57 | 39.61352 | 1.58143 | 30216 ft | 406 kts | 263° |
| 2026-05-08 12:57 | 39.61163 | 1.54479 | 30519 ft | 408 kts | 263° |
| 2026-05-08 12:58 | 39.60972 | 1.50802 | 30891 ft | 409 kts | 262° |
| 2026-05-08 12:58 | 39.60781 | 1.47127 | 31323 ft | 407 kts | 262° |
| 2026-05-08 12:58 | 39.60591 | 1.43487 | 31812 ft | 404 kts | 262° |
| 2026-05-08 12:58 | 39.60400 | 1.39866 | 32265 ft | 401 kts | 262° |
| 2026-05-08 12:59 | 39.60207 | 1.36256 | 32662 ft | 401 kts | 262° |
| 2026-05-08 12:59 | 39.60010 | 1.32662 | 33066 ft | 399 kts | 262° |
| 2026-05-08 12:59 | 39.59811 | 1.29079 | 33496 ft | 397 kts | 262° |
| 2026-05-08 12:59 | 39.59612 | 1.25517 | 33915 ft | 395 kts | 262° |
| 2026-05-08 13:00 | 39.59413 | 1.21971 | 34266 ft | 394 kts | 262° |
| 2026-05-08 13:00 | 39.59155 | 1.18447 | 34617 ft | 390 kts | 257° |
| 2026-05-08 13:00 | 39.58681 | 1.14993 | 34920 ft | 388 kts | 256° |
| 2026-05-08 13:00 | 39.58150 | 1.11564 | 35182 ft | 389 kts | 255° |
| 2026-05-08 13:01 | 39.57599 | 1.08122 | 35440 ft | 389 kts | 255° |
| 2026-05-08 13:01 | 39.57056 | 1.04706 | 35856 ft | 384 kts | 255° |
| 2026-05-08 13:01 | 39.56527 | 1.01332 | 36322 ft | 380 kts | 255° |
| 2026-05-08 13:01 | 39.56006 | 0.97980 | 36586 ft | 380 kts | 255° |
| 2026-05-08 13:02 | 39.55488 | 0.94621 | 36791 ft | 381 kts | 256° |
| 2026-05-08 13:02 | 39.54971 | 0.91248 | 36976 ft | 383 kts | 256° |
| 2026-05-08 13:02 | 39.53928 | 0.84436 | 37001 ft | 387 kts | 256° |
| 2026-05-08 13:03 | 39.52885 | 0.77617 | 36989 ft | 383 kts | 256° |
| 2026-05-08 13:03 | 39.51851 | 0.70882 | 37010 ft | 382 kts | 255° |
| 2026-05-08 13:04 | 39.50808 | 0.64126 | 37004 ft | 384 kts | 255° |
| 2026-05-08 13:04 | 39.49757 | 0.57345 | 37007 ft | 385 kts | 255° |
| 2026-05-08 13:05 | 39.48696 | 0.50527 | 37003 ft | 387 kts | 255° |
| 2026-05-08 13:05 | 39.47630 | 0.43705 | 37003 ft | 387 kts | 255° |
| 2026-05-08 13:06 | 39.46565 | 0.36915 | 37021 ft | 387 kts | 255° |
| 2026-05-08 13:06 | 39.45489 | 0.30081 | 37007 ft | 388 kts | 255° |
| 2026-05-08 13:07 | 39.44409 | 0.23250 | 37003 ft | 387 kts | 255° |
| 2026-05-08 13:07 | 39.43326 | 0.16427 | 37001 ft | 387 kts | 255° |
| 2026-05-08 13:08 | 39.42242 | 0.09622 | 37000 ft | 386 kts | 255° |
| 2026-05-08 13:08 | 39.41154 | 0.02821 | 37003 ft | 385 kts | 255° |
| 2026-05-08 13:09 | 39.40065 | -0.03959 | 37013 ft | 385 kts | 255° |
| 2026-05-08 13:09 | 39.38971 | -0.10740 | 37008 ft | 385 kts | 255° |
| 2026-05-08 13:10 | 39.37874 | -0.17518 | 37011 ft | 385 kts | 255° |
| 2026-05-08 13:10 | 39.36773 | -0.24287 | 37008 ft | 385 kts | 255° |
| 2026-05-08 13:11 | 39.35676 | -0.31016 | 36998 ft | 385 kts | 255° |
| 2026-05-08 13:11 | 39.34566 | -0.37789 | 36996 ft | 385 kts | 255° |
| 2026-05-08 13:12 | 39.33455 | -0.44552 | 37002 ft | 384 kts | 255° |
| 2026-05-08 13:12 | 39.32342 | -0.51294 | 36999 ft | 384 kts | 255° |
| 2026-05-08 13:13 | 39.31226 | -0.58034 | 37002 ft | 384 kts | 255° |
| 2026-05-08 13:13 | 39.30105 | -0.64773 | 37001 ft | 383 kts | 255° |
| 2026-05-08 13:14 | 39.28985 | -0.71491 | 36996 ft | 383 kts | 255° |
| 2026-05-08 13:14 | 39.27863 | -0.78189 | 37012 ft | 382 kts | 255° |
| 2026-05-08 13:15 | 39.26391 | -0.84752 | 36998 ft | 380 kts | 245° |
| 2026-05-08 13:15 | 39.23742 | -0.90623 | 36997 ft | 380 kts | 233° |
| 2026-05-08 13:16 | 39.20508 | -0.96026 | 36997 ft | 381 kts | 233° |
| 2026-05-08 13:16 | 39.17259 | -1.01435 | 36993 ft | 382 kts | 233° |
| 2026-05-08 13:17 | 39.14029 | -1.06840 | 36992 ft | 384 kts | 233° |
| 2026-05-08 13:17 | 39.10776 | -1.12292 | 36980 ft | 384 kts | 233° |
| 2026-05-08 13:18 | 39.07526 | -1.17734 | 37000 ft | 384 kts | 233° |
| 2026-05-08 13:18 | 39.04269 | -1.23178 | 36995 ft | 384 kts | 233° |
| 2026-05-08 13:19 | 39.01012 | -1.28611 | 36993 ft | 384 kts | 233° |
| 2026-05-08 13:19 | 38.97760 | -1.34036 | 36991 ft | 383 kts | 233° |
| 2026-05-08 13:20 | 38.94518 | -1.39440 | 36996 ft | 381 kts | 233° |
| 2026-05-08 13:20 | 38.91279 | -1.44830 | 36996 ft | 380 kts | 233° |
| 2026-05-08 13:21 | 38.88048 | -1.50198 | 36962 ft | 379 kts | 234° |
| 2026-05-08 13:21 | 38.84828 | -1.55539 | 36996 ft | 378 kts | 234° |
| 2026-05-08 13:22 | 38.81632 | -1.60831 | 36995 ft | 377 kts | 234° |
| 2026-05-08 13:22 | 38.78424 | -1.66136 | 36998 ft | 376 kts | 234° |
| 2026-05-08 13:23 | 38.75214 | -1.71436 | 36988 ft | 376 kts | 234° |
| 2026-05-08 13:23 | 38.72006 | -1.76721 | 36993 ft | 376 kts | 234° |
| 2026-05-08 13:24 | 38.68791 | -1.82003 | 36993 ft | 376 kts | 234° |
| 2026-05-08 13:24 | 38.65572 | -1.87281 | 36982 ft | 376 kts | 234° |
| 2026-05-08 13:25 | 38.62357 | -1.92547 | 36982 ft | 376 kts | 234° |
| 2026-05-08 13:25 | 38.59139 | -1.97810 | 36985 ft | 376 kts | 234° |
| 2026-05-08 13:26 | 38.55921 | -2.03067 | 36979 ft | 375 kts | 234° |
| 2026-05-08 13:26 | 38.52697 | -2.08324 | 36978 ft | 376 kts | 234° |
| 2026-05-08 13:27 | 38.49474 | -2.13572 | 36972 ft | 375 kts | 234° |
| 2026-05-08 13:27 | 38.46254 | -2.18815 | 36964 ft | 375 kts | 234° |
| 2026-05-08 13:28 | 38.43033 | -2.24051 | 36971 ft | 375 kts | 234° |
| 2026-05-08 13:28 | 38.39812 | -2.29282 | 36988 ft | 375 kts | 234° |
| 2026-05-08 13:29 | 38.36606 | -2.34475 | 36970 ft | 375 kts | 234° |
| 2026-05-08 13:29 | 38.33101 | -2.39420 | 36962 ft | 376 kts | 230° |
| 2026-05-08 13:30 | 38.29459 | -2.44259 | 36961 ft | 376 kts | 230° |
| 2026-05-08 13:30 | 38.25873 | -2.49032 | 36939 ft | 375 kts | 230° |
| 2026-05-08 13:31 | 38.22287 | -2.53829 | 36957 ft | 373 kts | 230° |
| 2026-05-08 13:31 | 38.18725 | -2.58603 | 36948 ft | 372 kts | 230° |
| 2026-05-08 13:32 | 38.15150 | -2.63376 | 36931 ft | 372 kts | 231° |
| 2026-05-08 13:32 | 38.11585 | -2.68131 | 36980 ft | 371 kts | 230° |
| 2026-05-08 13:33 | 38.08020 | -2.72876 | 36962 ft | 371 kts | 230° |
| 2026-05-08 13:33 | 38.04464 | -2.77605 | 36955 ft | 370 kts | 230° |
| 2026-05-08 13:34 | 38.00911 | -2.82323 | 36937 ft | 369 kts | 230° |
| 2026-05-08 13:34 | 37.97372 | -2.87018 | 36947 ft | 368 kts | 230° |
| 2026-05-08 13:35 | 37.93847 | -2.91681 | 36940 ft | 366 kts | 230° |
| 2026-05-08 13:35 | 37.90325 | -2.96328 | 36895 ft | 364 kts | 230° |
| 2026-05-08 13:36 | 37.86846 | -3.00907 | 36953 ft | 359 kts | 230° |
| 2026-05-08 13:36 | 37.83374 | -3.05479 | 36958 ft | 360 kts | 230° |
| 2026-05-08 13:37 | 37.79932 | -3.10001 | 36916 ft | 360 kts | 230° |
| 2026-05-08 13:37 | 37.76461 | -3.14559 | 36915 ft | 359 kts | 230° |
| 2026-05-08 13:38 | 37.74908 | -3.16990 | 36901 ft | 354 kts | 243° |
| 2026-05-08 13:38 | 37.73871 | -3.19788 | 36922 ft | 352 kts | 249° |
| 2026-05-08 13:38 | 37.73000 | -3.24813 | 36705 ft | 351 kts | 261° |
| 2026-05-08 13:39 | 37.72826 | -3.27855 | 36477 ft | 343 kts | 263° |
| 2026-05-08 13:39 | 37.72696 | -3.30835 | 36142 ft | 336 kts | 263° |
| 2026-05-08 13:39 | 37.72570 | -3.33728 | 35758 ft | 333 kts | 262° |
| 2026-05-08 13:39 | 37.72434 | -3.36624 | 35397 ft | 328 kts | 262° |
| 2026-05-08 13:40 | 37.72290 | -3.39483 | 35017 ft | 324 kts | 262° |
| 2026-05-08 13:40 | 37.72142 | -3.42285 | 34726 ft | 318 kts | 262° |
| 2026-05-08 13:40 | 37.71990 | -3.45063 | 34352 ft | 315 kts | 261° |
| 2026-05-08 13:40 | 37.71837 | -3.47807 | 34002 ft | 312 kts | 261° |
| 2026-05-08 13:41 | 37.71682 | -3.50531 | 33614 ft | 310 kts | 261° |
| 2026-05-08 13:41 | 37.71531 | -3.53238 | 33243 ft | 307 kts | 261° |
| 2026-05-08 13:41 | 37.71381 | -3.55919 | 32870 ft | 305 kts | 261° |
| 2026-05-08 13:41 | 37.71231 | -3.58571 | 32540 ft | 301 kts | 261° |
| 2026-05-08 13:42 | 37.71081 | -3.61201 | 32175 ft | 299 kts | 261° |
| 2026-05-08 13:42 | 37.70931 | -3.63821 | 31780 ft | 299 kts | 261° |
| 2026-05-08 13:42 | 37.70780 | -3.66434 | 31395 ft | 297 kts | 261° |
| 2026-05-08 13:42 | 37.70630 | -3.69028 | 31051 ft | 295 kts | 262° |
| 2026-05-08 13:43 | 37.70480 | -3.71605 | 30708 ft | 294 kts | 261° |
| 2026-05-08 13:43 | 37.70331 | -3.74169 | 30369 ft | 292 kts | 262° |
| 2026-05-08 13:43 | 37.70182 | -3.76723 | 30053 ft | 291 kts | 261° |
| 2026-05-08 13:43 | 37.70032 | -3.79270 | 29644 ft | 291 kts | 262° |
| 2026-05-08 13:44 | 37.69881 | -3.81829 | 29317 ft | 296 kts | 261° |
| 2026-05-08 13:44 | 37.69720 | -3.84485 | 28969 ft | 310 kts | 261° |
| 2026-05-08 13:44 | 37.69556 | -3.87223 | 28553 ft | 312 kts | 261° |
| 2026-05-08 13:44 | 37.69397 | -3.89909 | 28189 ft | 309 kts | 261° |
| 2026-05-08 13:45 | 37.69236 | -3.92637 | 27815 ft | 307 kts | 261° |
| 2026-05-08 13:45 | 37.69079 | -3.95281 | 27456 ft | 305 kts | 261° |
| 2026-05-08 13:45 | 37.68918 | -3.97972 | 27090 ft | 303 kts | 261° |
| 2026-05-08 13:45 | 37.68759 | -4.00610 | 26741 ft | 300 kts | 261° |
| 2026-05-08 13:46 | 37.68603 | -4.03197 | 26393 ft | 299 kts | 261° |
| 2026-05-08 13:46 | 37.68442 | -4.05836 | 26044 ft | 297 kts | 261° |
| 2026-05-08 13:46 | 37.68286 | -4.08393 | 25703 ft | 295 kts | 261° |
| 2026-05-08 13:46 | 37.68129 | -4.10964 | 25365 ft | 294 kts | 261° |
| 2026-05-08 13:47 | 37.67971 | -4.13527 | 25019 ft | 292 kts | 261° |
| 2026-05-08 13:47 | 37.67813 | -4.16081 | 24683 ft | 291 kts | 261° |
| 2026-05-08 13:47 | 37.67655 | -4.18628 | 24342 ft | 291 kts | 261° |
| 2026-05-08 13:47 | 37.67496 | -4.21169 | 23996 ft | 290 kts | 261° |
| 2026-05-08 13:48 | 37.67338 | -4.23709 | 23666 ft | 290 kts | 261° |
| 2026-05-08 13:48 | 37.67178 | -4.26250 | 23254 ft | 291 kts | 261° |
| 2026-05-08 13:48 | 37.67018 | -4.28795 | 22839 ft | 291 kts | 261° |
| 2026-05-08 13:48 | 37.66871 | -4.31332 | 22481 ft | 289 kts | 261° |
| 2026-05-08 13:49 | 37.66720 | -4.33854 | 22131 ft | 287 kts | 261° |
| 2026-05-08 13:49 | 37.66565 | -4.36353 | 21795 ft | 285 kts | 261° |
| 2026-05-08 13:49 | 37.66408 | -4.38838 | 21465 ft | 283 kts | 261° |
| 2026-05-08 13:49 | 37.66251 | -4.41296 | 21140 ft | 281 kts | 261° |
| 2026-05-08 13:50 | 37.66094 | -4.43741 | 20818 ft | 279 kts | 261° |
| 2026-05-08 13:50 | 37.65937 | -4.46174 | 20502 ft | 277 kts | 261° |
| 2026-05-08 13:50 | 37.65781 | -4.48586 | 20188 ft | 275 kts | 261° |
| 2026-05-08 13:50 | 37.65625 | -4.50990 | 19874 ft | 274 kts | 261° |
| 2026-05-08 13:51 | 37.65469 | -4.53386 | 19559 ft | 274 kts | 261° |
| 2026-05-08 13:51 | 37.65313 | -4.55776 | 19248 ft | 273 kts | 261° |
| 2026-05-08 13:51 | 37.65156 | -4.58164 | 18947 ft | 273 kts | 261° |
| 2026-05-08 13:51 | 37.64999 | -4.60550 | 18613 ft | 274 kts | 261° |
| 2026-05-08 13:52 | 37.64841 | -4.62941 | 18299 ft | 273 kts | 261° |
| 2026-05-08 13:52 | 37.64683 | -4.65331 | 17935 ft | 274 kts | 261° |
| 2026-05-08 13:52 | 37.64527 | -4.67691 | 17607 ft | 273 kts | 261° |
| 2026-05-08 13:52 | 37.64369 | -4.70069 | 17276 ft | 272 kts | 261° |
| 2026-05-08 13:53 | 37.64211 | -4.72440 | 16967 ft | 271 kts | 261° |
| 2026-05-08 13:53 | 37.64053 | -4.74806 | 16644 ft | 270 kts | 261° |
| 2026-05-08 13:53 | 37.63895 | -4.77162 | 16326 ft | 270 kts | 261° |
| 2026-05-08 13:53 | 37.63736 | -4.79517 | 16014 ft | 269 kts | 261° |
| 2026-05-08 13:54 | 37.63577 | -4.81870 | 15688 ft | 269 kts | 261° |
| 2026-05-08 13:54 | 37.63419 | -4.84216 | 15382 ft | 269 kts | 261° |
| 2026-05-08 13:54 | 37.63259 | -4.86566 | 15061 ft | 269 kts | 261° |
| 2026-05-08 13:54 | 37.63098 | -4.88915 | 14734 ft | 269 kts | 261° |
| 2026-05-08 13:55 | 37.62937 | -4.91273 | 14399 ft | 270 kts | 261° |
| 2026-05-08 13:55 | 37.62775 | -4.93634 | 14075 ft | 271 kts | 261° |
| 2026-05-08 13:55 | 37.62448 | -4.98372 | 13384 ft | 272 kts | 261° |
| 2026-05-08 13:56 | 37.62284 | -5.00747 | 13049 ft | 271 kts | 261° |
| 2026-05-08 13:56 | 37.62120 | -5.03117 | 12719 ft | 271 kts | 261° |
| 2026-05-08 13:56 | 37.61955 | -5.05485 | 12379 ft | 271 kts | 261° |
| 2026-05-08 13:56 | 37.61789 | -5.07849 | 12039 ft | 271 kts | 261° |
| 2026-05-08 13:57 | 37.61622 | -5.10223 | 11692 ft | 272 kts | 261° |
| 2026-05-08 13:57 | 37.61454 | -5.12602 | 11362 ft | 273 kts | 262° |
| 2026-05-08 13:57 | 37.61286 | -5.14978 | 11044 ft | 272 kts | 261° |
| 2026-05-08 13:57 | 37.61118 | -5.17356 | 10705 ft | 273 kts | 261° |
| 2026-05-08 13:58 | 37.60950 | -5.19741 | 10371 ft | 273 kts | 262° |
| 2026-05-08 13:58 | 37.60781 | -5.22125 | 10080 ft | 272 kts | 262° |
| 2026-05-08 13:58 | 37.60619 | -5.24465 | 9889 ft | 267 kts | 263° |
| 2026-05-08 13:58 | 37.60759 | -5.26819 | 9565 ft | 272 kts | 279° |
| 2026-05-08 13:59 | 37.61215 | -5.29134 | 9294 ft | 271 kts | 281° |
| 2026-05-08 13:59 | 37.61675 | -5.31433 | 9019 ft | 270 kts | 280° |
| 2026-05-08 13:59 | 37.61838 | -5.33717 | 8677 ft | 263 kts | 258° |
| 2026-05-08 13:59 | 37.61159 | -5.35790 | 8378 ft | 256 kts | 230° |
| 2026-05-08 14:00 | 37.59821 | -5.37217 | 8107 ft | 252 kts | 212° |
| 2026-05-08 14:00 | 37.58312 | -5.38345 | 7795 ft | 252 kts | 210° |
| 2026-05-08 14:00 | 37.56790 | -5.39443 | 7492 ft | 252 kts | 209° |
| 2026-05-08 14:00 | 37.55267 | -5.40539 | 7202 ft | 252 kts | 209° |
| 2026-05-08 14:01 | 37.53750 | -5.41636 | 6913 ft | 252 kts | 209° |
| 2026-05-08 14:01 | 37.52232 | -5.42738 | 6614 ft | 252 kts | 209° |
| 2026-05-08 14:01 | 37.50716 | -5.43839 | 6332 ft | 251 kts | 209° |
| 2026-05-08 14:01 | 37.49202 | -5.44936 | 6023 ft | 251 kts | 209° |
| 2026-05-08 14:02 | 37.47756 | -5.46156 | 5697 ft | 253 kts | 224° |
| 2026-05-08 14:02 | 37.46845 | -5.48052 | 5407 ft | 256 kts | 247° |
| 2026-05-08 14:02 | 37.46254 | -5.50169 | 5118 ft | 256 kts | 249° |
| 2026-05-08 14:02 | 37.45693 | -5.52298 | 4825 ft | 256 kts | 250° |
| 2026-05-08 14:03 | 37.45129 | -5.54421 | 4517 ft | 256 kts | 250° |
| 2026-05-08 14:03 | 37.44567 | -5.56542 | 4242 ft | 254 kts | 250° |
| 2026-05-08 14:03 | 37.44009 | -5.58633 | 4012 ft | 250 kts | 250° |
| 2026-05-08 14:03 | 37.43440 | -5.60686 | 3795 ft | 246 kts | 246° |
| 2026-05-08 14:04 | 37.42718 | -5.62623 | 3569 ft | 243 kts | 243° |
| 2026-05-08 14:04 | 37.42002 | -5.64541 | 3347 ft | 242 kts | 249° |
| 2026-05-08 14:04 | 37.41871 | -5.66650 | 3133 ft | 244 kts | 272° |
| 2026-05-08 14:04 | 37.41924 | -5.68752 | 2955 ft | 236 kts | 265° |
| 2026-05-08 14:05 | 37.41888 | -5.70781 | 2697 ft | 229 kts | 267° |
| 2026-05-08 14:05 | 37.41867 | -5.72742 | 2435 ft | 224 kts | 267° |
| 2026-05-08 14:05 | 37.41858 | -5.74667 | 2135 ft | 215 kts | 268° |
| 2026-05-08 14:05 | 37.41850 | -5.76491 | 1830 ft | 201 kts | 267° |
| 2026-05-08 14:06 | 37.41843 | -5.78171 | 1591 ft | 182 kts | 266° |
| 2026-05-08 14:06 | 37.41836 | -5.79697 | 1374 ft | 169 kts | 266° |
| 2026-05-08 14:06 | 37.41825 | -5.81162 | 1160 ft | 161 kts | 264° |
| 2026-05-08 14:06 | 37.41819 | -5.82517 | 931 ft | 147 kts | 264° |
| 2026-05-08 14:07 | 37.41812 | -5.83782 | 731 ft | 149 kts | 266° |
| 2026-05-08 14:07 | 37.41813 | -5.85099 | 536 ft | 153 kts | 267° |
| 2026-05-08 14:07 | 37.41809 | -5.86406 | 307 ft | 146 kts | 266° |
| 2026-05-08 14:07 | 37.41796 | -5.87686 | 135 ft | 147 kts | 267° |
| 2026-05-08 14:08 | 37.41793 | -5.88891 | 102 ft | 121 kts | 270° |
| 2026-05-08 14:08 | 37.41793 | -5.89639 | 92 ft | 31 kts | 271° |
| 2026-05-08 14:08 | 37.41901 | -5.89829 | 93 ft | 13 kts | 334° |
| 2026-05-08 14:08 | 37.41912 | -5.89836 | 95 ft | 0 kts | 336° |
| 2026-05-08 14:09 | 37.41915 | -5.89837 | 91 ft | 2 kts | 336° |
| 2026-05-08 14:09 | 37.41939 | -5.89850 | 92 ft | 6 kts | 336° |
| 2026-05-08 14:10 | 37.41988 | -5.89877 | 93 ft | 9 kts | 336° |
| 2026-05-08 14:10 | 37.42056 | -5.89913 | 94 ft | 12 kts | 338° |
| 2026-05-08 14:10 | 37.42135 | -5.89934 | 95 ft | 11 kts | 348° |
| 2026-05-08 14:10 | 37.42201 | -5.89957 | 94 ft | 6 kts | 344° |
| 2026-05-08 14:11 | 37.42215 | -5.89962 | 94 ft | 0 kts | 343° |